sensor_id;sensor_type;location;lat;lon;timestamp;pressure;altitude;pressure_sealevel;temperature;humidity
20455;BME280;10386;54.314;10.022;2022-12-07T00:01:14;100565.69;;;1.82;100.00
20455;BME280;10386;54.314;10.022;2022-12-07T00:03:42;100567.53;;;1.80;100.00
20455;BME280;10386;54.314;10.022;2022-12-07T00:06:12;100565.03;;;1.76;100.00
20455;BME280;10386;54.314;10.022;2022-12-07T00:08:39;100556.19;;;1.74;100.00
20455;BME280;10386;54.314;10.022;2022-12-07T00:11:20;100549.75;;;1.79;100.00
20455;BME280;10386;54.314;10.022;2022-12-07T00:13:55;100549.00;;;1.76;100.00
20455;BME280;10386;54.314;10.022;2022-12-07T00:16:26;100540.91;;;1.77;100.00
20455;BME280;10386;54.314;10.022;2022-12-07T00:18:54;100547.91;;;1.58;100.00
20455;BME280;10386;54.314;10.022;2022-12-07T00:21:26;100540.28;;;1.71;100.00
20455;BME280;10386;54.314;10.022;2022-12-07T00:23:55;100530.22;;;1.77;100.00
20455;BME280;10386;54.314;10.022;2022-12-07T00:26:28;100521.84;;;1.85;100.00
20455;BME280;10386;54.314;10.022;2022-12-07T00:28:57;100509.16;;;1.90;100.00
20455;BME280;10386;54.314;10.022;2022-12-07T00:31:27;100512.28;;;1.79;100.00
20455;BME280;10386;54.314;10.022;2022-12-07T00:33:54;100503.94;;;1.87;100.00
20455;BME280;10386;54.314;10.022;2022-12-07T00:36:22;100503.50;;;1.76;100.00
20455;BME280;10386;54.314;10.022;2022-12-07T00:38:58;100482.47;;;1.88;100.00
20455;BME280;10386;54.314;10.022;2022-12-07T00:41:26;100474.53;;;2.07;100.00
20455;BME280;10386;54.314;10.022;2022-12-07T00:43:54;100452.88;;;2.13;100.00
20455;BME280;10386;54.314;10.022;2022-12-07T00:46:22;100443.69;;;2.18;100.00
20455;BME280;10386;54.314;10.022;2022-12-07T00:48:50;100431.63;;;2.28;100.00
20455;BME280;10386;54.314;10.022;2022-12-07T00:51:19;100416.91;;;2.38;100.00
20455;BME280;10386;54.314;10.022;2022-12-07T00:53:46;100417.41;;;2.46;100.00
20455;BME280;10386;54.314;10.022;2022-12-07T00:56:19;100406.41;;;2.52;100.00
20455;BME280;10386;54.314;10.022;2022-12-07T00:58:52;100400.88;;;2.57;100.00
20455;BME280;10386;54.314;10.022;2022-12-07T01:01:20;100392.69;;;2.60;100.00
20455;BME280;10386;54.314;10.022;2022-12-07T01:03:47;100391.69;;;2.62;100.00
20455;BME280;10386;54.314;10.022;2022-12-07T01:06:16;100380.03;;;2.63;100.00
20455;BME280;10386;54.314;10.022;2022-12-07T01:08:43;100379.91;;;2.66;100.00
20455;BME280;10386;54.314;10.022;2022-12-07T01:11:14;100380.59;;;2.69;100.00
20455;BME280;10386;54.314;10.022;2022-12-07T01:13:44;100376.63;;;2.78;100.00
20455;BME280;10386;54.314;10.022;2022-12-07T01:16:14;100375.56;;;2.82;100.00
20455;BME280;10386;54.314;10.022;2022-12-07T01:18:42;100374.97;;;2.94;100.00
20455;BME280;10386;54.314;10.022;2022-12-07T01:21:23;100367.72;;;2.96;100.00
20455;BME280;10386;54.314;10.022;2022-12-07T01:23:50;100367.38;;;3.03;100.00
20455;BME280;10386;54.314;10.022;2022-12-07T01:26:20;100361.75;;;3.08;100.00
20455;BME280;10386;54.314;10.022;2022-12-07T01:28:47;100358.44;;;3.03;100.00
20455;BME280;10386;54.314;10.022;2022-12-07T01:31:17;100362.25;;;2.97;100.00
20455;BME280;10386;54.314;10.022;2022-12-07T01:33:46;100358.72;;;2.97;100.00
20455;BME280;10386;54.314;10.022;2022-12-07T01:36:14;100346.56;;;3.08;100.00
20455;BME280;10386;54.314;10.022;2022-12-07T01:38:41;100366.03;;;2.93;100.00
20455;BME280;10386;54.314;10.022;2022-12-07T01:41:08;100358.09;;;2.92;100.00
20455;BME280;10386;54.314;10.022;2022-12-07T01:43:35;100354.47;;;2.93;100.00
20455;BME280;10386;54.314;10.022;2022-12-07T01:46:03;100358.16;;;2.90;100.00
20455;BME280;10386;54.314;10.022;2022-12-07T01:48:39;100357.59;;;2.84;100.00
20455;BME280;10386;54.314;10.022;2022-12-07T01:51:11;100360.56;;;2.78;100.00
20455;BME280;10386;54.314;10.022;2022-12-07T01:53:43;100359.75;;;2.76;100.00
20455;BME280;10386;54.314;10.022;2022-12-07T01:56:24;100346.91;;;2.82;100.00
20455;BME280;10386;54.314;10.022;2022-12-07T01:58:53;100350.50;;;2.83;100.00
20455;BME280;10386;54.314;10.022;2022-12-07T02:01:21;100335.25;;;2.83;100.00
20455;BME280;10386;54.314;10.022;2022-12-07T02:03:48;100339.47;;;2.89;100.00
20455;BME280;10386;54.314;10.022;2022-12-07T02:06:19;100329.41;;;2.94;100.00
20455;BME280;10386;54.314;10.022;2022-12-07T02:08:47;100341.34;;;2.87;100.00
20455;BME280;10386;54.314;10.022;2022-12-07T02:11:14;100334.16;;;2.87;100.00
20455;BME280;10386;54.314;10.022;2022-12-07T02:13:42;100344.25;;;2.82;100.00
20455;BME280;10386;54.314;10.022;2022-12-07T02:24:57;100322.38;;;2.73;100.00
20455;BME280;10386;54.314;10.022;2022-12-07T02:27:46;100319.91;;;2.68;100.00
20455;BME280;10386;54.314;10.022;2022-12-07T02:30:17;100318.91;;;2.71;100.00
20455;BME280;10386;54.314;10.022;2022-12-07T02:33:03;100312.66;;;2.70;100.00
20455;BME280;10386;54.314;10.022;2022-12-07T02:38:27;100312.97;;;2.65;100.00
20455;BME280;10386;54.314;10.022;2022-12-07T02:41:00;100322.03;;;2.62;100.00
20455;BME280;10386;54.314;10.022;2022-12-07T02:43:34;100319.34;;;2.62;100.00
20455;BME280;10386;54.314;10.022;2022-12-07T02:46:08;100321.50;;;2.54;100.00
20455;BME280;10386;54.314;10.022;2022-12-07T02:48:37;100335.56;;;2.59;100.00
20455;BME280;10386;54.314;10.022;2022-12-07T02:51:04;100328.47;;;2.58;100.00
20455;BME280;10386;54.314;10.022;2022-12-07T02:53:42;100323.63;;;2.48;100.00
20455;BME280;10386;54.314;10.022;2022-12-07T02:58:55;100337.47;;;2.37;100.00
20455;BME280;10386;54.314;10.022;2022-12-07T03:01:47;100332.41;;;2.31;100.00
20455;BME280;10386;54.314;10.022;2022-12-07T03:07:05;100330.38;;;2.36;100.00
20455;BME280;10386;54.314;10.022;2022-12-07T03:09:40;100338.06;;;2.25;100.00
20455;BME280;10386;54.314;10.022;2022-12-07T03:12:20;100341.63;;;2.26;100.00
20455;BME280;10386;54.314;10.022;2022-12-07T03:14:58;100327.44;;;2.24;100.00
20455;BME280;10386;54.314;10.022;2022-12-07T03:17:28;100324.22;;;2.16;100.00
20455;BME280;10386;54.314;10.022;2022-12-07T03:20:00;100325.84;;;2.20;100.00
20455;BME280;10386;54.314;10.022;2022-12-07T03:22:32;100324.16;;;2.17;100.00
20455;BME280;10386;54.314;10.022;2022-12-07T03:25:05;100316.34;;;2.13;100.00
20455;BME280;10386;54.314;10.022;2022-12-07T03:27:41;100325.50;;;2.07;100.00
20455;BME280;10386;54.314;10.022;2022-12-07T03:31:05;100315.59;;;2.09;100.00
20455;BME280;10386;54.314;10.022;2022-12-07T03:33:17;100319.25;;;2.07;100.00
20455;BME280;10386;54.314;10.022;2022-12-07T03:38:49;100308.31;;;1.93;100.00
20455;BME280;10386;54.314;10.022;2022-12-07T03:41:24;100309.19;;;1.93;100.00
20455;BME280;10386;54.314;10.022;2022-12-07T03:43:51;100293.56;;;2.03;100.00
20455;BME280;10386;54.314;10.022;2022-12-07T03:46:37;100292.78;;;2.01;100.00
20455;BME280;10386;54.314;10.022;2022-12-07T03:57:21;100285.81;;;1.97;100.00
20455;BME280;10386;54.314;10.022;2022-12-07T03:59:49;100286.75;;;1.96;100.00
20455;BME280;10386;54.314;10.022;2022-12-07T04:02:17;100281.63;;;1.91;100.00
20455;BME280;10386;54.314;10.022;2022-12-07T04:04:44;100281.78;;;1.88;100.00
20455;BME280;10386;54.314;10.022;2022-12-07T04:07:11;100272.31;;;2.00;100.00
20455;BME280;10386;54.314;10.022;2022-12-07T04:09:39;100251.53;;;1.86;100.00
20455;BME280;10386;54.314;10.022;2022-12-07T04:12:06;100255.28;;;1.82;100.00
20455;BME280;10386;54.314;10.022;2022-12-07T04:14:32;100262.81;;;1.74;100.00
20455;BME280;10386;54.314;10.022;2022-12-07T04:16:59;100269.41;;;1.66;100.00
20455;BME280;10386;54.314;10.022;2022-12-07T04:19:28;100274.22;;;1.58;100.00
20455;BME280;10386;54.314;10.022;2022-12-07T04:21:57;100270.66;;;1.57;100.00
20455;BME280;10386;54.314;10.022;2022-12-07T04:24:24;100271.97;;;1.49;100.00
20455;BME280;10386;54.314;10.022;2022-12-07T04:26:51;100278.28;;;1.46;100.00
20455;BME280;10386;54.314;10.022;2022-12-07T04:29:18;100270.22;;;1.48;100.00
20455;BME280;10386;54.314;10.022;2022-12-07T04:31:46;100274.25;;;1.38;100.00
20455;BME280;10386;54.314;10.022;2022-12-07T04:34:13;100259.94;;;1.39;100.00
20455;BME280;10386;54.314;10.022;2022-12-07T04:36:41;100261.28;;;1.29;100.00
20455;BME280;10386;54.314;10.022;2022-12-07T04:39:20;100260.44;;;1.27;100.00
20455;BME280;10386;54.314;10.022;2022-12-07T04:41:48;100256.09;;;1.25;100.00
20455;BME280;10386;54.314;10.022;2022-12-07T04:44:16;100254.50;;;1.21;100.00
20455;BME280;10386;54.314;10.022;2022-12-07T04:46:44;100256.53;;;1.14;100.00
20455;BME280;10386;54.314;10.022;2022-12-07T04:49:12;100246.13;;;1.08;100.00
20455;BME280;10386;54.314;10.022;2022-12-07T04:51:40;100248.06;;;1.05;100.00
20455;BME280;10386;54.314;10.022;2022-12-07T04:54:07;100259.81;;;1.01;100.00
20455;BME280;10386;54.314;10.022;2022-12-07T04:56:35;100250.13;;;0.98;100.00
20455;BME280;10386;54.314;10.022;2022-12-07T04:59:02;100248.59;;;0.93;100.00
20455;BME280;10386;54.314;10.022;2022-12-07T05:01:30;100236.03;;;0.95;100.00
20455;BME280;10386;54.314;10.022;2022-12-07T05:03:59;100236.50;;;1.04;100.00
20455;BME280;10386;54.314;10.022;2022-12-07T05:06:27;100238.75;;;0.93;100.00
20455;BME280;10386;54.314;10.022;2022-12-07T05:08:54;100226.28;;;0.94;100.00
20455;BME280;10386;54.314;10.022;2022-12-07T05:11:22;100231.50;;;0.97;100.00
20455;BME280;10386;54.314;10.022;2022-12-07T05:14:09;100224.28;;;0.99;100.00
20455;BME280;10386;54.314;10.022;2022-12-07T05:16:37;100225.94;;;1.01;100.00
20455;BME280;10386;54.314;10.022;2022-12-07T05:19:04;100219.91;;;0.96;100.00
20455;BME280;10386;54.314;10.022;2022-12-07T05:21:31;100215.25;;;1.01;100.00
20455;BME280;10386;54.314;10.022;2022-12-07T05:23:58;100208.84;;;1.05;100.00
20455;BME280;10386;54.314;10.022;2022-12-07T05:26:25;100216.13;;;1.02;100.00
20455;BME280;10386;54.314;10.022;2022-12-07T05:28:53;100209.09;;;0.99;100.00
20455;BME280;10386;54.314;10.022;2022-12-07T05:31:21;100212.69;;;0.98;100.00
20455;BME280;10386;54.314;10.022;2022-12-07T05:33:48;100206.78;;;0.92;100.00
20455;BME280;10386;54.314;10.022;2022-12-07T05:36:16;100211.19;;;0.93;100.00
20455;BME280;10386;54.314;10.022;2022-12-07T05:38:43;100205.97;;;0.90;100.00
20455;BME280;10386;54.314;10.022;2022-12-07T05:41:13;100202.41;;;0.89;100.00
20455;BME280;10386;54.314;10.022;2022-12-07T05:44:00;100199.69;;;0.91;100.00
20455;BME280;10386;54.314;10.022;2022-12-07T05:46:27;100207.75;;;0.89;100.00
20455;BME280;10386;54.314;10.022;2022-12-07T05:48:54;100203.53;;;0.84;100.00
20455;BME280;10386;54.314;10.022;2022-12-07T05:51:22;100195.41;;;0.87;100.00
20455;BME280;10386;54.314;10.022;2022-12-07T05:53:48;100189.22;;;0.85;100.00
20455;BME280;10386;54.314;10.022;2022-12-07T05:56:15;100188.34;;;0.86;100.00
20455;BME280;10386;54.314;10.022;2022-12-07T05:58:42;100189.31;;;0.83;100.00
20455;BME280;10386;54.314;10.022;2022-12-07T06:01:28;100185.59;;;0.87;100.00
20455;BME280;10386;54.314;10.022;2022-12-07T06:03:54;100176.91;;;0.82;100.00
20455;BME280;10386;54.314;10.022;2022-12-07T06:06:21;100171.56;;;0.82;100.00
20455;BME280;10386;54.314;10.022;2022-12-07T06:08:48;100168.69;;;0.87;100.00
20455;BME280;10386;54.314;10.022;2022-12-07T06:11:15;100166.13;;;0.84;100.00
20455;BME280;10386;54.314;10.022;2022-12-07T06:14:00;100163.47;;;0.84;100.00
20455;BME280;10386;54.314;10.022;2022-12-07T06:16:28;100167.94;;;0.83;100.00
20455;BME280;10386;54.314;10.022;2022-12-07T06:18:55;100160.91;;;0.81;100.00
20455;BME280;10386;54.314;10.022;2022-12-07T06:21:21;100165.00;;;0.89;100.00
20455;BME280;10386;54.314;10.022;2022-12-07T06:23:48;100161.28;;;0.93;100.00
20455;BME280;10386;54.314;10.022;2022-12-07T06:26:15;100157.63;;;0.96;100.00
20455;BME280;10386;54.314;10.022;2022-12-07T06:28:42;100159.22;;;1.00;100.00
20455;BME280;10386;54.314;10.022;2022-12-07T06:31:09;100157.47;;;0.99;100.00
20455;BME280;10386;54.314;10.022;2022-12-07T06:33:40;100148.72;;;1.15;100.00
20455;BME280;10386;54.314;10.022;2022-12-07T06:36:08;100152.94;;;1.21;100.00
20455;BME280;10386;54.314;10.022;2022-12-07T06:38:35;100147.25;;;1.28;100.00
20455;BME280;10386;54.314;10.022;2022-12-07T06:41:02;100144.91;;;1.21;100.00
20455;BME280;10386;54.314;10.022;2022-12-07T06:43:30;100143.31;;;1.17;100.00
20455;BME280;10386;54.314;10.022;2022-12-07T06:45:56;100153.34;;;1.12;100.00
20455;BME280;10386;54.314;10.022;2022-12-07T06:48:24;100158.59;;;1.13;100.00
20455;BME280;10386;54.314;10.022;2022-12-07T06:50:50;100156.81;;;1.14;100.00
20455;BME280;10386;54.314;10.022;2022-12-07T06:53:21;100156.88;;;1.12;100.00
20455;BME280;10386;54.314;10.022;2022-12-07T06:55:48;100156.00;;;1.12;100.00
20455;BME280;10386;54.314;10.022;2022-12-07T06:58:15;100157.94;;;1.08;100.00
20455;BME280;10386;54.314;10.022;2022-12-07T07:00:43;100158.88;;;1.07;100.00
20455;BME280;10386;54.314;10.022;2022-12-07T07:03:10;100155.06;;;1.13;100.00
20455;BME280;10386;54.314;10.022;2022-12-07T07:05:36;100153.53;;;1.07;100.00
20455;BME280;10386;54.314;10.022;2022-12-07T07:08:03;100147.19;;;1.10;100.00
20455;BME280;10386;54.314;10.022;2022-12-07T07:10:48;100137.50;;;1.07;100.00
20455;BME280;10386;54.314;10.022;2022-12-07T07:13:15;100148.19;;;1.07;100.00
20455;BME280;10386;54.314;10.022;2022-12-07T07:15:41;100148.94;;;1.11;100.00
20455;BME280;10386;54.314;10.022;2022-12-07T07:18:09;100151.72;;;1.08;100.00
20455;BME280;10386;54.314;10.022;2022-12-07T07:20:36;100160.69;;;1.07;100.00
20455;BME280;10386;54.314;10.022;2022-12-07T07:23:03;100164.22;;;1.07;100.00
20455;BME280;10386;54.314;10.022;2022-12-07T07:25:31;100157.88;;;1.10;100.00
20455;BME280;10386;54.314;10.022;2022-12-07T07:27:58;100154.19;;;1.12;100.00
20455;BME280;10386;54.314;10.022;2022-12-07T07:30:25;100153.78;;;1.21;100.00
20455;BME280;10386;54.314;10.022;2022-12-07T07:32:57;100147.44;;;1.24;100.00
20455;BME280;10386;54.314;10.022;2022-12-07T07:35:28;100156.25;;;1.26;100.00
20455;BME280;10386;54.314;10.022;2022-12-07T07:37:55;100163.47;;;1.24;100.00
20455;BME280;10386;54.314;10.022;2022-12-07T07:40:23;100156.41;;;1.23;100.00
20455;BME280;10386;54.314;10.022;2022-12-07T07:42:51;100153.72;;;1.23;100.00
20455;BME280;10386;54.314;10.022;2022-12-07T07:45:19;100153.50;;;1.27;100.00
20455;BME280;10386;54.314;10.022;2022-12-07T07:47:47;100154.34;;;1.29;100.00
20455;BME280;10386;54.314;10.022;2022-12-07T07:50:14;100155.53;;;1.42;100.00
20455;BME280;10386;54.314;10.022;2022-12-07T07:52:42;100161.97;;;1.56;100.00
20455;BME280;10386;54.314;10.022;2022-12-07T07:55:09;100162.09;;;1.53;100.00
20455;BME280;10386;54.314;10.022;2022-12-07T07:57:37;100158.94;;;1.64;100.00
20455;BME280;10386;54.314;10.022;2022-12-07T08:00:10;100157.72;;;1.71;100.00
20455;BME280;10386;54.314;10.022;2022-12-07T08:02:37;100165.75;;;1.71;100.00
20455;BME280;10386;54.314;10.022;2022-12-07T08:05:04;100166.69;;;1.70;100.00
20455;BME280;10386;54.314;10.022;2022-12-07T08:07:31;100171.69;;;1.77;100.00
20455;BME280;10386;54.314;10.022;2022-12-07T08:09:58;100172.63;;;1.76;100.00
20455;BME280;10386;54.314;10.022;2022-12-07T08:12:25;100179.91;;;1.73;100.00
20455;BME280;10386;54.314;10.022;2022-12-07T08:14:51;100184.13;;;1.78;100.00
20455;BME280;10386;54.314;10.022;2022-12-07T08:17:18;100188.41;;;1.82;100.00
20455;BME280;10386;54.314;10.022;2022-12-07T08:19:45;100185.59;;;1.85;100.00
20455;BME280;10386;54.314;10.022;2022-12-07T08:22:12;100191.22;;;1.79;100.00
20455;BME280;10386;54.314;10.022;2022-12-07T08:24:39;100198.97;;;1.85;100.00
20455;BME280;10386;54.314;10.022;2022-12-07T08:27:05;100210.59;;;1.84;100.00
20455;BME280;10386;54.314;10.022;2022-12-07T08:29:32;100209.00;;;1.80;100.00
20455;BME280;10386;54.314;10.022;2022-12-07T08:31:59;100216.09;;;1.81;100.00
20455;BME280;10386;54.314;10.022;2022-12-07T08:34:34;100226.56;;;1.86;100.00
20455;BME280;10386;54.314;10.022;2022-12-07T08:37:02;100231.72;;;1.90;100.00
20455;BME280;10386;54.314;10.022;2022-12-07T08:39:29;100242.44;;;1.90;100.00
20455;BME280;10386;54.314;10.022;2022-12-07T08:41:57;100245.69;;;1.97;100.00
20455;BME280;10386;54.314;10.022;2022-12-07T08:44:24;100252.72;;;1.99;100.00
20455;BME280;10386;54.314;10.022;2022-12-07T08:46:58;100262.47;;;2.00;100.00
20455;BME280;10386;54.314;10.022;2022-12-07T08:49:36;100273.41;;;2.14;100.00
20455;BME280;10386;54.314;10.022;2022-12-07T08:52:04;100276.03;;;2.16;100.00
20455;BME280;10386;54.314;10.022;2022-12-07T08:54:33;100287.31;;;2.22;100.00
20455;BME280;10386;54.314;10.022;2022-12-07T08:57:01;100291.69;;;2.25;100.00
20455;BME280;10386;54.314;10.022;2022-12-07T08:59:28;100305.63;;;2.31;100.00
20455;BME280;10386;54.314;10.022;2022-12-07T09:01:55;100311.50;;;2.39;100.00
20455;BME280;10386;54.314;10.022;2022-12-07T09:04:22;100328.31;;;2.43;100.00
20455;BME280;10386;54.314;10.022;2022-12-07T09:06:49;100338.16;;;2.42;100.00
20455;BME280;10386;54.314;10.022;2022-12-07T09:09:16;100351.69;;;2.39;100.00
20455;BME280;10386;54.314;10.022;2022-12-07T09:11:42;100355.94;;;2.43;100.00
20455;BME280;10386;54.314;10.022;2022-12-07T09:14:12;100359.72;;;2.39;100.00
20455;BME280;10386;54.314;10.022;2022-12-07T09:16:39;100371.16;;;2.43;100.00
20455;BME280;10386;54.314;10.022;2022-12-07T09:19:07;100383.00;;;2.37;100.00
20455;BME280;10386;54.314;10.022;2022-12-07T09:21:34;100399.59;;;2.45;100.00
20455;BME280;10386;54.314;10.022;2022-12-07T09:24:01;100405.75;;;2.47;100.00
20455;BME280;10386;54.314;10.022;2022-12-07T09:26:28;100419.25;;;2.46;100.00
20455;BME280;10386;54.314;10.022;2022-12-07T09:28:54;100436.78;;;2.53;100.00
20455;BME280;10386;54.314;10.022;2022-12-07T09:31:21;100453.84;;;2.50;100.00
20455;BME280;10386;54.314;10.022;2022-12-07T09:33:56;100461.22;;;2.45;100.00
20455;BME280;10386;54.314;10.022;2022-12-07T09:36:23;100468.31;;;2.46;100.00
20455;BME280;10386;54.314;10.022;2022-12-07T09:38:50;100471.75;;;2.50;100.00
20455;BME280;10386;54.314;10.022;2022-12-07T09:41:17;100487.66;;;2.53;100.00
20455;BME280;10386;54.314;10.022;2022-12-07T09:43:44;100494.03;;;2.50;100.00
20455;BME280;10386;54.314;10.022;2022-12-07T09:46:14;100499.19;;;2.55;100.00
20455;BME280;10386;54.314;10.022;2022-12-07T09:48:43;100515.25;;;2.55;100.00
20455;BME280;10386;54.314;10.022;2022-12-07T09:51:22;100527.66;;;2.57;100.00
20455;BME280;10386;54.314;10.022;2022-12-07T09:53:53;100526.88;;;2.55;100.00
20455;BME280;10386;54.314;10.022;2022-12-07T09:56:21;100541.91;;;2.58;100.00
20455;BME280;10386;54.314;10.022;2022-12-07T09:58:48;100547.16;;;2.61;100.00
20455;BME280;10386;54.314;10.022;2022-12-07T10:01:19;100556.34;;;2.55;100.00
20455;BME280;10386;54.314;10.022;2022-12-07T10:03:52;100573.22;;;2.57;100.00
20455;BME280;10386;54.314;10.022;2022-12-07T10:06:19;100587.28;;;2.62;100.00
20455;BME280;10386;54.314;10.022;2022-12-07T10:08:47;100586.88;;;2.71;100.00
20455;BME280;10386;54.314;10.022;2022-12-07T10:11:14;100609.41;;;2.67;100.00
20455;BME280;10386;54.314;10.022;2022-12-07T10:13:49;100618.97;;;2.72;100.00
20455;BME280;10386;54.314;10.022;2022-12-07T10:16:38;100627.75;;;2.76;100.00
20455;BME280;10386;54.314;10.022;2022-12-07T10:19:30;100661.72;;;2.75;100.00
20455;BME280;10386;54.314;10.022;2022-12-07T10:22:02;100672.25;;;2.80;100.00
20455;BME280;10386;54.314;10.022;2022-12-07T10:24:29;100671.97;;;2.86;100.00
20455;BME280;10386;54.314;10.022;2022-12-07T10:26:56;100689.94;;;2.84;100.00
20455;BME280;10386;54.314;10.022;2022-12-07T10:29:36;100697.97;;;2.84;100.00
20455;BME280;10386;54.314;10.022;2022-12-07T10:37:49;100714.53;;;2.93;100.00
20455;BME280;10386;54.314;10.022;2022-12-07T10:40:35;100730.81;;;2.89;100.00
20455;BME280;10386;54.314;10.022;2022-12-07T10:43:18;100742.41;;;2.89;100.00
20455;BME280;10386;54.314;10.022;2022-12-07T10:55:13;100755.47;;;2.98;100.00
20455;BME280;10386;54.314;10.022;2022-12-07T11:06:30;100764.34;;;2.99;100.00
20455;BME280;10386;54.314;10.022;2022-12-07T11:31:36;100833.19;;;3.20;100.00
20455;BME280;10386;54.314;10.022;2022-12-07T11:34:28;100833.81;;;3.26;100.00
20455;BME280;10386;54.314;10.022;2022-12-07T11:37:02;100844.47;;;3.28;100.00
20455;BME280;10386;54.314;10.022;2022-12-07T11:39:43;100840.94;;;3.27;100.00
20455;BME280;10386;54.314;10.022;2022-12-07T11:42:27;100852.34;;;3.32;100.00
20455;BME280;10386;54.314;10.022;2022-12-07T11:45:17;100852.25;;;3.34;100.00
20455;BME280;10386;54.314;10.022;2022-12-07T11:50:39;100865.75;;;3.32;100.00
20455;BME280;10386;54.314;10.022;2022-12-07T11:55:52;100868.47;;;3.31;100.00
20455;BME280;10386;54.314;10.022;2022-12-07T12:01:22;100875.59;;;3.32;100.00
20455;BME280;10386;54.314;10.022;2022-12-07T12:06:38;100871.72;;;3.39;100.00
20455;BME280;10386;54.314;10.022;2022-12-07T12:09:33;100894.06;;;3.39;100.00
20455;BME280;10386;54.314;10.022;2022-12-07T12:12:08;100894.44;;;3.30;100.00
20455;BME280;10386;54.314;10.022;2022-12-07T12:15:38;100891.69;;;3.32;100.00
20455;BME280;10386;54.314;10.022;2022-12-07T12:21:08;100900.88;;;3.26;100.00
20455;BME280;10386;54.314;10.022;2022-12-07T12:23:41;100913.16;;;3.32;100.00
20455;BME280;10386;54.314;10.022;2022-12-07T12:26:24;100918.47;;;3.33;100.00
20455;BME280;10386;54.314;10.022;2022-12-07T12:28:55;100921.31;;;3.29;100.00
20455;BME280;10386;54.314;10.022;2022-12-07T12:33:52;100917.00;;;3.25;100.00
20455;BME280;10386;54.314;10.022;2022-12-07T12:39:18;100919.94;;;3.19;100.00
20455;BME280;10386;54.314;10.022;2022-12-07T12:46:50;100924.75;;;3.11;100.00
20455;BME280;10386;54.314;10.022;2022-12-07T12:51:50;100933.09;;;3.03;100.00
20455;BME280;10386;54.314;10.022;2022-12-07T13:02:38;100942.81;;;3.06;100.00
20455;BME280;10386;54.314;10.022;2022-12-07T13:10:35;100945.22;;;2.90;100.00
20455;BME280;10386;54.314;10.022;2022-12-07T13:20:58;100946.97;;;2.68;100.00
20455;BME280;10386;54.314;10.022;2022-12-07T13:26:38;100952.66;;;2.60;100.00
20455;BME280;10386;54.314;10.022;2022-12-07T13:29:13;100962.66;;;2.56;100.00
20455;BME280;10386;54.314;10.022;2022-12-07T13:32:01;100960.03;;;2.53;100.00
20455;BME280;10386;54.314;10.022;2022-12-07T13:34:36;100968.31;;;2.47;100.00
20455;BME280;10386;54.314;10.022;2022-12-07T13:37:33;100977.25;;;2.48;100.00
20455;BME280;10386;54.314;10.022;2022-12-07T13:40:18;100992.38;;;2.49;100.00
20455;BME280;10386;54.314;10.022;2022-12-07T13:42:46;100986.03;;;2.51;100.00
20455;BME280;10386;54.314;10.022;2022-12-07T13:45:25;100989.94;;;2.43;100.00
20455;BME280;10386;54.314;10.022;2022-12-07T13:48:26;100994.72;;;2.33;100.00
20455;BME280;10386;54.314;10.022;2022-12-07T13:50:56;100992.13;;;2.32;100.00
20455;BME280;10386;54.314;10.022;2022-12-07T13:53:23;101005.63;;;2.29;100.00
20455;BME280;10386;54.314;10.022;2022-12-07T13:55:51;100997.72;;;2.24;100.00
20455;BME280;10386;54.314;10.022;2022-12-07T13:58:21;101000.72;;;2.15;100.00
20455;BME280;10386;54.314;10.022;2022-12-07T14:00:48;100997.09;;;2.18;100.00
20455;BME280;10386;54.314;10.022;2022-12-07T14:05:44;101006.19;;;2.12;100.00
20455;BME280;10386;54.314;10.022;2022-12-07T14:15:50;101007.25;;;2.07;100.00
20455;BME280;10386;54.314;10.022;2022-12-07T14:23:38;101027.22;;;1.97;100.00
20455;BME280;10386;54.314;10.022;2022-12-07T14:26:08;101029.25;;;1.90;100.00
20455;BME280;10386;54.314;10.022;2022-12-07T14:28:38;101029.25;;;1.90;100.00
20455;BME280;10386;54.314;10.022;2022-12-07T14:31:13;101027.53;;;1.88;100.00
20455;BME280;10386;54.314;10.022;2022-12-07T14:33:51;101036.47;;;1.88;100.00
20455;BME280;10386;54.314;10.022;2022-12-07T14:36:18;101031.97;;;1.89;100.00
20455;BME280;10386;54.314;10.022;2022-12-07T14:38:45;101033.09;;;1.82;100.00
20455;BME280;10386;54.314;10.022;2022-12-07T14:41:15;101032.25;;;1.81;100.00
20455;BME280;10386;54.314;10.022;2022-12-07T14:44:01;101038.63;;;1.77;100.00
20455;BME280;10386;54.314;10.022;2022-12-07T14:46:48;101034.28;;;1.73;100.00
20455;BME280;10386;54.314;10.022;2022-12-07T14:49:16;101033.59;;;1.67;100.00
20455;BME280;10386;54.314;10.022;2022-12-07T14:51:59;101044.00;;;1.76;100.00
20455;BME280;10386;54.314;10.022;2022-12-07T14:54:46;101051.44;;;1.66;100.00
20455;BME280;10386;54.314;10.022;2022-12-07T14:57:13;101056.06;;;1.61;100.00
20455;BME280;10386;54.314;10.022;2022-12-07T14:59:41;101054.41;;;1.57;100.00
20455;BME280;10386;54.314;10.022;2022-12-07T15:02:14;101051.72;;;1.57;100.00
20455;BME280;10386;54.314;10.022;2022-12-07T15:04:45;101044.81;;;1.50;100.00
20455;BME280;10386;54.314;10.022;2022-12-07T15:07:18;101044.81;;;1.50;100.00
20455;BME280;10386;54.314;10.022;2022-12-07T15:09:47;101038.63;;;1.50;100.00
20455;BME280;10386;54.314;10.022;2022-12-07T15:12:13;101032.53;;;1.45;100.00
20455;BME280;10386;54.314;10.022;2022-12-07T15:14:40;101034.47;;;1.40;100.00
20455;BME280;10386;54.314;10.022;2022-12-07T15:17:10;101021.09;;;1.40;100.00
20455;BME280;10386;54.314;10.022;2022-12-07T15:19:53;101026.47;;;1.38;100.00
20455;BME280;10386;54.314;10.022;2022-12-07T15:22:20;101032.94;;;1.32;100.00